Time;durP1;ratioP1;P1;durP2;ratioP2;P2;SDS_P1;SDS_P2;PMS_P1;PMS_P2;Temp;Humidity;BMP_temperature;BMP_pressure;BME280_temperature;BME280_humidity;BME280_pressure;Samples;Min_cycle;Max_cycle;Signal;HPM_P1;HPM_P2
2023/05/14 00:01:06;;;;;;;8.40;5.03;;;;;;;;;;5037838;28;20028;-72
2023/05/14 00:03:52;;;;;;;8.88;4.88;;;;;;;;;;5040759;28;20033;-70
2023/05/14 00:06:37;;;;;;;6.30;4.55;;;;;;;;;;5040041;28;20049;-71
2023/05/14 00:09:22;;;;;;;10.57;5.15;;;;;;;;;;5043288;28;20114;-72
2023/05/14 00:12:08;;;;;;;5.82;4.53;;;;;;;;;;5039606;28;20029;-74
2023/05/14 00:14:53;;;;;;;11.00;5.22;;;;;;;;;;5043374;28;20056;-70
2023/05/14 00:17:38;;;;;;;6.57;4.65;;;;;;;;;;5039156;28;20033;-69
2023/05/14 00:20:23;;;;;;;8.55;5.53;;;;;;;;;;5042093;28;20040;-69
2023/05/14 00:23:08;;;;;;;8.68;5.30;;;;;;;;;;5052787;28;20076;-69
2023/05/14 00:25:54;;;;;;;9.98;5.50;;;;;;;;;;5041451;28;20124;-68
2023/05/14 00:28:39;;;;;;;6.05;4.72;;;;;;;;;;5044799;28;20118;-72
2023/05/14 00:31:24;;;;;;;7.80;5.03;;;;;;;;;;5031115;28;20111;-73
2023/05/14 00:34:09;;;;;;;7.53;4.80;;;;;;;;;;5042891;28;20427;-69
2023/05/14 00:36:55;;;;;;;9.18;5.32;;;;;;;;;;5045131;28;20055;-68
2023/05/14 00:39:40;;;;;;;9.35;5.68;;;;;;;;;;5034765;28;20163;-71
2023/05/14 00:42:25;;;;;;;7.93;4.72;;;;;;;;;;5048601;28;20058;-68
2023/05/14 00:45:11;;;;;;;7.75;5.50;;;;;;;;;;5046132;28;20480;-68
2023/05/14 00:47:56;;;;;;;7.30;5.00;;;;;;;;;;5038474;28;20043;-65
2023/05/14 00:50:41;;;;;;;7.53;5.28;;;;;;;;;;5043625;28;20024;-73
2023/05/14 00:53:27;;;;;;;7.45;5.60;;;;;;;;;;5045202;28;20033;-69
2023/05/14 00:56:13;;;;;;;8.23;5.45;;;;;;;;;;5039493;28;20120;-71
2023/05/14 00:58:58;;;;;;;8.23;5.45;;;;;;;;;;5043577;28;20036;-70
2023/05/14 01:01:43;;;;;;;9.02;5.28;;;;;;;;;;5042385;28;20086;-69
2023/05/14 01:04:28;;;;;;;8.23;5.97;;;;;;;;;;5029992;28;20043;-69
2023/05/14 01:07:17;;;;;;;8.95;5.80;;;;;;;;;;5045154;28;20049;-72
2023/05/14 01:10:07;;;;;;;11.73;5.95;;;;;;;;;;5048617;28;20501;-70
2023/05/14 01:12:55;;;;;;;9.68;5.55;;;;;;;;;;5044206;28;20079;-69
2023/05/14 01:15:41;;;;;;;8.18;6.55;;;;;;;;;;5043284;28;20025;-66
2023/05/14 01:18:27;;;;;;;9.30;5.43;;;;;;;;;;5041845;28;20047;-69
2023/05/14 01:21:35;;;;;;;8.15;5.53;;;;;;;;;;5042324;28;20056;-70
2023/05/14 01:24:20;;;;;;;10.07;6.22;;;;;;;;;;5043729;28;20116;-68
2023/05/14 01:27:09;;;;;;;9.30;6.32;;;;;;;;;;5052647;28;20013;-75
2023/05/14 01:30:16;;;;;;;9.18;6.05;;;;;;;;;;5044570;28;20044;-73
2023/05/14 01:33:05;;;;;;;8.57;5.60;;;;;;;;;;5054979;28;20328;-72
2023/05/14 01:35:52;;;;;;;10.45;6.43;;;;;;;;;;5039700;28;20040;-73
2023/05/14 01:38:38;;;;;;;28.48;6.18;;;;;;;;;;5041439;28;20059;-74
2023/05/14 01:41:24;;;;;;;9.27;6.20;;;;;;;;;;5046774;28;20036;-74
2023/05/14 01:44:10;;;;;;;7.95;5.68;;;;;;;;;;5041852;28;20662;-75
2023/05/14 01:46:55;;;;;;;8.55;5.93;;;;;;;;;;5041346;28;20033;-73
2023/05/14 01:49:40;;;;;;;8.38;5.85;;;;;;;;;;5045489;28;20029;-72
2023/05/14 01:52:25;;;;;;;8.40;5.63;;;;;;;;;;5043567;28;20433;-73
2023/05/14 01:55:11;;;;;;;7.75;5.60;;;;;;;;;;5052707;28;20083;-73
2023/05/14 01:57:56;;;;;;;8.15;5.93;;;;;;;;;;5047504;28;20239;-78
2023/05/14 02:00:41;;;;;;;10.27;6.10;;;;;;;;;;5035763;28;20064;-73
2023/05/14 02:03:26;;;;;;;9.98;5.85;;;;;;;;;;5043521;28;20047;-66
2023/05/14 02:06:11;;;;;;;9.70;5.82;;;;;;;;;;5043034;28;20555;-70
2023/05/14 02:08:57;;;;;;;10.23;5.78;;;;;;;;;;5022516;28;20114;-68
2023/05/14 02:11:42;;;;;;;9.75;6.32;;;;;;;;;;5040086;28;20914;-69
2023/05/14 02:14:27;;;;;;;8.98;5.43;;;;;;;;;;5043416;28;20045;-67
2023/05/14 02:17:15;;;;;;;8.65;5.88;;;;;;;;;;5045751;28;20142;-71
2023/05/14 02:20:00;;;;;;;8.07;5.53;;;;;;;;;;5043603;28;20035;-70
2023/05/14 02:22:45;;;;;;;10.88;6.50;;;;;;;;;;5041800;28;20044;-74
2023/05/14 02:25:31;;;;;;;9.18;6.38;;;;;;;;;;5034170;28;20112;-68
2023/05/14 02:28:16;;;;;;;7.18;5.60;;;;;;;;;;5043109;28;20025;-71
2023/05/14 02:31:01;;;;;;;9.75;5.55;;;;;;;;;;5049921;28;20476;-69
2023/05/14 02:33:46;;;;;;;9.68;6.10;;;;;;;;;;5040417;28;20158;-68
2023/05/14 02:36:31;;;;;;;11.70;7.03;;;;;;;;;;5043750;28;20098;-68
2023/05/14 02:39:17;;;;;;;9.95;6.40;;;;;;;;;;5044201;28;20463;-69
2023/05/14 02:42:02;;;;;;;9.43;6.63;;;;;;;;;;5043332;28;20319;-70
2023/05/14 02:44:47;;;;;;;8.35;6.35;;;;;;;;;;5054461;28;20052;-68
2023/05/14 02:47:32;;;;;;;9.05;5.88;;;;;;;;;;5043635;28;20095;-69
2023/05/14 02:50:18;;;;;;;10.00;6.93;;;;;;;;;;5043417;28;20025;-69
2023/05/14 02:53:03;;;;;;;7.30;5.63;;;;;;;;;;5041069;28;20025;-69
2023/05/14 02:55:48;;;;;;;9.95;6.30;;;;;;;;;;5041598;28;20033;-69
2023/05/14 02:58:33;;;;;;;8.23;5.20;;;;;;;;;;5038847;28;20033;-70
2023/05/14 03:01:19;;;;;;;8.93;6.43;;;;;;;;;;5046285;28;20468;-66
2023/05/14 03:04:04;;;;;;;8.07;5.40;;;;;;;;;;5051601;28;20017;-67
2023/05/14 03:06:49;;;;;;;11.77;6.47;;;;;;;;;;5045230;28;20056;-68
2023/05/14 03:09:34;;;;;;;10.48;6.78;;;;;;;;;;5045148;28;20031;-66
2023/05/14 03:12:20;;;;;;;9.30;6.07;;;;;;;;;;5045913;28;20027;-65
2023/05/14 03:15:06;;;;;;;9.43;6.45;;;;;;;;;;5029603;28;20373;-64
2023/05/14 03:17:51;;;;;;;7.70;5.53;;;;;;;;;;5045739;28;20017;-69
2023/05/14 03:20:36;;;;;;;8.38;6.00;;;;;;;;;;5041337;28;20041;-73
2023/05/14 03:23:21;;;;;;;8.18;5.50;;;;;;;;;;5038190;28;20403;-73
2023/05/14 03:26:07;;;;;;;10.23;6.07;;;;;;;;;;5044976;28;20037;-73
2023/05/14 03:28:53;;;;;;;8.65;6.03;;;;;;;;;;5044891;28;20454;-73
2023/05/14 03:31:38;;;;;;;10.02;6.40;;;;;;;;;;5041103;28;20476;-73
2023/05/14 03:34:24;;;;;;;10.50;6.30;;;;;;;;;;5051703;28;20102;-68
2023/05/14 03:37:09;;;;;;;9.73;6.50;;;;;;;;;;5047401;28;20052;-75
2023/05/14 03:39:55;;;;;;;14.80;7.97;;;;;;;;;;5030359;28;20048;-76
2023/05/14 03:42:40;;;;;;;10.02;7.45;;;;;;;;;;5045194;28;20033;-76
2023/05/14 03:45:27;;;;;;;9.00;6.80;;;;;;;;;;5044729;28;20483;-76
2023/05/14 03:48:12;;;;;;;11.32;7.32;;;;;;;;;;5044974;28;20503;-77
2023/05/14 03:50:57;;;;;;;9.05;6.22;;;;;;;;;;5044585;28;20427;-77
2023/05/14 03:53:43;;;;;;;9.90;6.10;;;;;;;;;;5045116;28;20094;-67
2023/05/14 03:56:28;;;;;;;9.32;6.65;;;;;;;;;;5042070;28;20048;-69
2023/05/14 03:59:13;;;;;;;10.40;6.97;;;;;;;;;;5041209;28;20053;-69
2023/05/14 04:01:58;;;;;;;10.27;6.60;;;;;;;;;;5042895;28;20063;-70
2023/05/14 04:04:44;;;;;;;11.05;7.93;;;;;;;;;;5032498;28;20079;-68
2023/05/14 04:07:29;;;;;;;9.73;6.97;;;;;;;;;;5055613;28;20072;-68
2023/05/14 04:10:14;;;;;;;10.50;6.45;;;;;;;;;;5033140;28;20435;-71
2023/05/14 04:13:00;;;;;;;8.30;6.22;;;;;;;;;;5049411;28;20120;-64
2023/05/14 04:15:45;;;;;;;11.85;7.40;;;;;;;;;;5030646;28;20037;-67
2023/05/14 04:18:34;;;;;;;10.45;7.28;;;;;;;;;;5044722;28;20227;-68
2023/05/14 04:21:19;;;;;;;9.95;7.05;;;;;;;;;;5046851;28;20083;-68
2023/05/14 04:24:05;;;;;;;9.10;7.03;;;;;;;;;;5048088;28;20051;-67
2023/05/14 04:26:50;;;;;;;9.50;7.07;;;;;;;;;;5049324;28;20025;-71
2023/05/14 04:29:35;;;;;;;10.80;7.20;;;;;;;;;;5046477;28;20120;-76
2023/05/14 04:32:21;;;;;;;10.77;7.35;;;;;;;;;;5047596;28;20375;-75
2023/05/14 04:35:07;;;;;;;10.50;7.10;;;;;;;;;;5039117;28;20120;-75
2023/05/14 04:37:53;;;;;;;11.32;7.68;;;;;;;;;;5050461;28;20055;-74
2023/05/14 04:40:38;;;;;;;9.55;7.22;;;;;;;;;;5045453;28;20033;-75
2023/05/14 04:43:23;;;;;;;11.95;6.78;;;;;;;;;;5033229;28;20028;-75
2023/05/14 04:46:08;;;;;;;9.10;7.13;;;;;;;;;;5057550;28;20025;-74
2023/05/14 04:48:54;;;;;;;10.48;7.13;;;;;;;;;;5036485;28;20443;-76
2023/05/14 04:51:39;;;;;;;10.63;6.57;;;;;;;;;;5048021;28;20235;-70
2023/05/14 04:54:24;;;;;;;9.98;6.78;;;;;;;;;;5046264;28;20040;-69
2023/05/14 04:57:10;;;;;;;13.52;7.93;;;;;;;;;;5046534;28;20024;-69
2023/05/14 04:59:55;;;;;;;8.55;6.40;;;;;;;;;;5042998;28;20032;-69
2023/05/14 05:02:40;;;;;;;10.80;8.00;;;;;;;;;;5050737;28;20094;-69
2023/05/14 05:05:25;;;;;;;9.68;6.40;;;;;;;;;;5043268;28;20391;-68
2023/05/14 05:08:10;;;;;;;9.80;6.68;;;;;;;;;;5028025;28;20051;-70
2023/05/14 05:10:56;;;;;;;10.48;6.35;;;;;;;;;;5054774;28;20379;-68
2023/05/14 05:13:41;;;;;;;12.40;6.93;;;;;;;;;;5044072;28;20771;-68
2023/05/14 05:16:26;;;;;;;9.88;6.45;;;;;;;;;;5046389;28;20035;-69
2023/05/14 05:19:11;;;;;;;15.98;7.13;;;;;;;;;;5045409;28;20104;-69
2023/05/14 05:21:57;;;;;;;13.52;6.57;;;;;;;;;;5035922;28;20033;-69
2023/05/14 05:24:42;;;;;;;10.23;7.05;;;;;;;;;;5052379;28;20472;-67
2023/05/14 05:27:27;;;;;;;10.27;6.82;;;;;;;;;;5050416;28;20036;-70
2023/05/14 05:30:12;;;;;;;10.63;6.53;;;;;;;;;;5050683;28;20032;-68
2023/05/14 05:32:58;;;;;;;10.15;6.80;;;;;;;;;;5049951;28;20033;-70
2023/05/14 05:35:43;;;;;;;8.75;6.70;;;;;;;;;;5049976;28;20040;-71
2023/05/14 05:38:28;;;;;;;10.27;6.88;;;;;;;;;;5042969;28;20061;-69
2023/05/14 05:41:14;;;;;;;11.23;7.68;;;;;;;;;;5049253;28;20467;-69
2023/05/14 05:43:59;;;;;;;9.90;6.88;;;;;;;;;;5048592;28;20021;-76
2023/05/14 05:46:44;;;;;;;12.35;7.40;;;;;;;;;;5036326;28;20479;-76
2023/05/14 05:49:29;;;;;;;10.93;7.72;;;;;;;;;;5049191;28;20383;-76
2023/05/14 05:52:15;;;;;;;9.32;6.65;;;;;;;;;;5048218;28;20460;-75
2023/05/14 05:55:00;;;;;;;10.25;7.93;;;;;;;;;;5043835;28;20064;-74
2023/05/14 05:57:45;;;;;;;9.20;6.10;;;;;;;;;;5040119;28;20020;-73
2023/05/14 06:00:30;;;;;;;11.27;6.60;;;;;;;;;;5041277;28;20032;-74
2023/05/14 06:03:16;;;;;;;12.30;7.63;;;;;;;;;;5044648;28;20426;-68
2023/05/14 06:06:01;;;;;;;9.85;6.95;;;;;;;;;;5049327;28;20024;-73
2023/05/14 06:08:46;;;;;;;13.45;7.82;;;;;;;;;;5044632;28;20035;-73
2023/05/14 06:11:32;;;;;;;9.45;6.15;;;;;;;;;;5044750;28;20256;-73
2023/05/14 06:14:17;;;;;;;10.90;7.40;;;;;;;;;;5048834;28;20037;-72
2023/05/14 06:17:02;;;;;;;11.57;8.27;;;;;;;;;;5047497;28;20087;-76
2023/05/14 06:19:47;;;;;;;9.43;6.38;;;;;;;;;;5047598;28;20380;-69
2023/05/14 06:22:33;;;;;;;11.00;7.82;;;;;;;;;;5049036;28;20029;-73
2023/05/14 06:25:18;;;;;;;10.50;7.25;;;;;;;;;;5049776;28;20029;-72
2023/05/14 06:28:03;;;;;;;10.57;7.25;;;;;;;;;;5047927;28;20075;-74
2023/05/14 06:30:49;;;;;;;10.00;6.68;;;;;;;;;;5045412;28;20060;-72
2023/05/14 06:33:34;;;;;;;11.88;6.95;;;;;;;;;;5040945;28;20033;-75
2023/05/14 06:36:19;;;;;;;11.70;7.47;;;;;;;;;;5050060;28;20035;-74
2023/05/14 06:39:05;;;;;;;9.07;6.45;;;;;;;;;;5049245;28;20029;-77
2023/05/14 06:41:50;;;;;;;13.82;9.00;;;;;;;;;;5066312;23;20514;-79
2023/05/14 06:44:35;;;;;;;9.43;6.80;;;;;;;;;;5026989;28;20041;-77
2023/05/14 06:47:20;;;;;;;10.43;6.82;;;;;;;;;;5041257;28;20030;-77
2023/05/14 06:50:06;;;;;;;10.48;7.20;;;;;;;;;;5020614;28;20366;-78
2023/05/14 06:52:51;;;;;;;12.25;7.18;;;;;;;;;;5019284;28;20312;-77
2023/05/14 06:55:36;;;;;;;9.52;6.95;;;;;;;;;;5023048;28;20118;-77
2023/05/14 06:58:21;;;;;;;9.95;7.10;;;;;;;;;;5025374;28;20024;-70
2023/05/14 07:01:07;;;;;;;12.15;7.93;;;;;;;;;;5028224;28;20029;-69
2023/05/14 07:03:52;;;;;;;9.45;6.65;;;;;;;;;;5011931;28;20033;-70
2023/05/14 07:06:37;;;;;;;11.07;8.05;;;;;;;;;;5014621;28;20401;-72
2023/05/14 07:09:22;;;;;;;9.75;6.95;;;;;;;;;;5027743;28;20041;-74
2023/05/14 07:12:08;;;;;;;11.45;7.97;;;;;;;;;;5012329;28;20380;-69
2023/05/14 07:14:53;;;;;;;11.85;7.53;;;;;;;;;;5014481;28;20033;-73
2023/05/14 07:17:38;;;;;;;11.18;7.65;;;;;;;;;;5026743;28;20026;-76
2023/05/14 07:20:23;;;;;;;10.77;7.55;;;;;;;;;;5025782;28;20420;-79
2023/05/14 07:23:08;;;;;;;10.18;6.85;;;;;;;;;;5026237;28;20021;-78
2023/05/14 07:25:54;;;;;;;9.50;6.55;;;;;;;;;;5017957;28;20025;-79
2023/05/14 07:28:39;;;;;;;11.13;7.63;;;;;;;;;;5009592;28;20478;-76
2023/05/14 07:31:24;;;;;;;12.32;7.75;;;;;;;;;;5006615;28;20056;-74
2023/05/14 07:34:10;;;;;;;13.77;8.20;;;;;;;;;;5020114;28;20396;-72
2023/05/14 07:36:55;;;;;;;11.50;7.95;;;;;;;;;;5027411;28;20099;-70
2023/05/14 07:39:41;;;;;;;10.32;7.75;;;;;;;;;;5023957;28;20025;-71
2023/05/14 07:42:26;;;;;;;10.23;7.68;;;;;;;;;;5012172;28;20044;-71
2023/05/14 07:45:11;;;;;;;11.40;7.70;;;;;;;;;;5027748;28;20017;-71
2023/05/14 07:47:56;;;;;;;14.38;8.57;;;;;;;;;;5027725;28;20025;-71
2023/05/14 07:50:41;;;;;;;9.95;7.72;;;;;;;;;;5026818;28;20036;-72
2023/05/14 07:53:27;;;;;;;10.35;7.93;;;;;;;;;;5006701;28;20044;-76
2023/05/14 07:56:12;;;;;;;10.73;7.88;;;;;;;;;;5024858;28;20062;-71
2023/05/14 07:58:57;;;;;;;11.77;8.38;;;;;;;;;;5027864;28;20036;-73
2023/05/14 08:01:43;;;;;;;10.57;6.93;;;;;;;;;;5025074;28;20032;-73
2023/05/14 08:04:28;;;;;;;10.20;7.07;;;;;;;;;;5017156;28;20029;-70
2023/05/14 08:07:13;;;;;;;10.43;7.38;;;;;;;;;;5026773;28;20022;-71
2023/05/14 08:09:58;;;;;;;10.27;7.63;;;;;;;;;;5027683;28;20594;-74
2023/05/14 08:12:44;;;;;;;10.75;7.07;;;;;;;;;;5008804;28;20026;-71
2023/05/14 08:15:29;;;;;;;10.82;7.55;;;;;;;;;;5007751;28;20041;-77
2023/05/14 08:18:14;;;;;;;10.50;7.85;;;;;;;;;;5012890;28;20036;-74
2023/05/14 08:21:00;;;;;;;10.63;7.20;;;;;;;;;;5026771;28;20029;-75
2023/05/14 08:23:45;;;;;;;9.45;6.72;;;;;;;;;;5020442;28;20042;-74
2023/05/14 08:26:30;;;;;;;9.95;6.32;;;;;;;;;;5016142;28;20400;-74
2023/05/14 08:29:15;;;;;;;12.50;6.93;;;;;;;;;;5027054;28;20047;-76
2023/05/14 08:32:01;;;;;;;9.80;6.43;;;;;;;;;;5009440;28;20033;-74
2023/05/14 08:34:46;;;;;;;9.90;6.45;;;;;;;;;;5025616;28;20057;-77
2023/05/14 08:37:31;;;;;;;8.40;5.93;;;;;;;;;;5005967;28;20100;-77
2023/05/14 08:40:17;;;;;;;11.10;6.90;;;;;;;;;;5010717;28;20549;-77
2023/05/14 08:43:02;;;;;;;11.90;7.45;;;;;;;;;;5022392;28;20744;-78
2023/05/14 08:45:48;;;;;;;9.75;7.18;;;;;;;;;;5008968;28;20488;-75
2023/05/14 08:48:34;;;;;;;11.25;8.20;;;;;;;;;;5018905;28;20036;-74
2023/05/14 08:51:20;;;;;;;9.95;7.13;;;;;;;;;;5013444;28;20032;-73
2023/05/14 08:54:05;;;;;;;10.48;7.07;;;;;;;;;;5008452;28;20040;-73
2023/05/14 08:56:50;;;;;;;9.23;6.47;;;;;;;;;;5012568;28;20112;-74
2023/05/14 08:59:36;;;;;;;8.82;6.63;;;;;;;;;;5029564;28;20485;-73
2023/05/14 09:02:30;;;;;;;10.13;7.32;;;;;;;;;;5025101;28;20029;-74
2023/05/14 09:05:16;;;;;;;11.82;6.82;;;;;;;;;;5009137;28;20361;-71
2023/05/14 09:08:02;;;;;;;10.85;6.72;;;;;;;;;;5010496;28;20624;-71
2023/05/14 09:10:47;;;;;;;8.95;6.75;;;;;;;;;;5029586;28;20409;-73
2023/05/14 09:13:35;;;;;;;12.05;7.75;;;;;;;;;;5013659;28;20040;-73
2023/05/14 09:16:20;;;;;;;9.98;7.40;;;;;;;;;;5010434;28;20013;-73
2023/05/14 09:19:06;;;;;;;10.50;7.50;;;;;;;;;;5027361;28;20472;-73
2023/05/14 09:21:55;;;;;;;10.55;7.97;;;;;;;;;;5037603;28;20689;-72
2023/05/14 09:24:40;;;;;;;12.85;7.35;;;;;;;;;;5023214;28;20025;-74
2023/05/14 09:27:28;;;;;;;10.82;6.82;;;;;;;;;;5028221;28;20025;-72
2023/05/14 09:30:13;;;;;;;12.93;7.57;;;;;;;;;;5024507;28;20029;-72
2023/05/14 09:32:58;;;;;;;9.55;6.88;;;;;;;;;;5015899;28;20499;-73
2023/05/14 09:35:56;;;;;;;10.93;7.35;;;;;;;;;;5028026;28;20087;-73
2023/05/14 09:38:41;;;;;;;8.68;5.80;;;;;;;;;;5020224;28;20030;-73
2023/05/14 09:41:27;;;;;;;11.75;6.82;;;;;;;;;;5029042;28;20417;-74
2023/05/14 09:44:12;;;;;;;10.15;6.32;;;;;;;;;;5011316;28;20107;-72
2023/05/14 09:46:57;;;;;;;12.05;6.43;;;;;;;;;;5015932;28;20032;-73
2023/05/14 09:49:42;;;;;;;9.57;6.93;;;;;;;;;;5012401;28;20033;-74
2023/05/14 09:52:28;;;;;;;9.45;6.60;;;;;;;;;;5024454;28;20494;-74
2023/05/14 09:55:13;;;;;;;10.57;6.57;;;;;;;;;;5012954;28;20045;-75
2023/05/14 09:57:59;;;;;;;9.63;6.95;;;;;;;;;;5028934;28;20013;-73
2023/05/14 10:00:44;;;;;;;9.05;6.05;;;;;;;;;;5028901;28;20663;-72
2023/05/14 10:03:30;;;;;;;10.10;7.63;;;;;;;;;;5026377;28;20401;-79
2023/05/14 10:06:16;;;;;;;8.77;6.32;;;;;;;;;;5022020;28;20029;-80
2023/05/14 10:09:03;;;;;;;8.70;6.32;;;;;;;;;;5020255;28;20034;-80
2023/05/14 10:11:51;;;;;;;9.73;5.75;;;;;;;;;;5013251;28;20037;-77
2023/05/14 10:14:41;;;;;;;8.88;6.60;;;;;;;;;;5024491;28;20519;-80
2023/05/14 10:17:30;;;;;;;9.80;6.80;;;;;;;;;;5025888;28;20029;-82
2023/05/14 10:20:16;;;;;;;12.80;7.93;;;;;;;;;;5027663;28;20032;-79
2023/05/14 10:23:01;;;;;;;10.90;6.82;;;;;;;;;;5029547;28;20024;-71
2023/05/14 10:25:46;;;;;;;8.45;6.07;;;;;;;;;;5039017;28;20029;-70
2023/05/14 10:28:32;;;;;;;7.75;6.05;;;;;;;;;;5043399;28;20526;-72
2023/05/14 10:31:17;;;;;;;9.88;5.93;;;;;;;;;;5014597;28;20021;-72
2023/05/14 10:34:02;;;;;;;8.70;5.60;;;;;;;;;;5012282;28;20563;-71
2023/05/14 10:36:47;;;;;;;9.15;6.78;;;;;;;;;;5043234;28;20033;-73
2023/05/14 10:39:42;;;;;;;7.93;5.72;;;;;;;;;;5028424;28;20021;-72
2023/05/14 10:42:31;;;;;;;7.43;4.78;;;;;;;;;;5006669;28;20096;-74
2023/05/14 10:45:16;;;;;;;10.68;6.28;;;;;;;;;;5015548;28;20105;-74
2023/05/14 10:48:01;;;;;;;8.10;5.35;;;;;;;;;;5029210;28;20227;-76
2023/05/14 10:50:47;;;;;;;10.30;5.50;;;;;;;;;;5029182;28;20022;-74
2023/05/14 10:53:34;;;;;;;8.90;5.85;;;;;;;;;;5005043;28;20029;-74
2023/05/14 10:56:20;;;;;;;9.93;6.22;;;;;;;;;;5027354;28;20073;-78
2023/05/14 10:59:05;;;;;;;10.55;5.95;;;;;;;;;;5028497;28;20033;-73
2023/05/14 11:01:50;;;;;;;7.97;5.63;;;;;;;;;;5027562;28;20017;-74
2023/05/14 11:04:35;;;;;;;10.48;7.45;;;;;;;;;;5027954;28;20040;-73
2023/05/14 11:07:23;;;;;;;9.57;5.50;;;;;;;;;;5011102;28;20048;-74
2023/05/14 11:10:09;;;;;;;11.93;6.88;;;;;;;;;;5026125;28;20051;-75
2023/05/14 11:12:55;;;;;;;9.98;6.05;;;;;;;;;;5022138;28;20076;-73
2023/05/14 11:15:45;;;;;;;7.75;5.60;;;;;;;;;;5028461;28;20065;-77
2023/05/14 11:18:39;;;;;;;8.20;6.03;;;;;;;;;;5028551;28;20112;-73
2023/05/14 11:21:24;;;;;;;14.13;8.82;;;;;;;;;;5015295;28;20056;-74
2023/05/14 11:24:10;;;;;;;8.70;5.72;;;;;;;;;;5041119;28;20025;-73
2023/05/14 11:26:55;;;;;;;9.95;6.47;;;;;;;;;;5042110;28;20519;-72
2023/05/14 11:29:47;;;;;;;9.43;7.03;;;;;;;;;;5018850;28;20190;-74
2023/05/14 11:32:32;;;;;;;8.75;6.28;;;;;;;;;;5014550;28;20036;-71
2023/05/14 11:35:17;;;;;;;10.30;6.53;;;;;;;;;;5014693;28;20034;-75
2023/05/14 11:38:03;;;;;;;9.55;5.72;;;;;;;;;;5040662;28;20053;-75
2023/05/14 11:40:52;;;;;;;8.95;6.25;;;;;;;;;;5028335;28;20238;-74
2023/05/14 11:43:38;;;;;;;11.75;5.40;;;;;;;;;;5041103;28;20396;-76
2023/05/14 11:46:24;;;;;;;8.18;4.85;;;;;;;;;;5010258;28;20156;-75
2023/05/14 11:49:09;;;;;;;7.65;5.13;;;;;;;;;;5013914;28;20025;-74
2023/05/14 11:51:58;;;;;;;7.80;4.68;;;;;;;;;;5023701;28;20033;-73
2023/05/14 11:54:44;;;;;;;7.57;4.70;;;;;;;;;;5014217;28;20071;-74
2023/05/14 11:57:29;;;;;;;8.23;5.47;;;;;;;;;;5027597;28;20428;-74
2023/05/14 12:00:20;;;;;;;7.47;4.95;;;;;;;;;;5027586;28;20021;-74
2023/05/14 12:03:05;;;;;;;7.72;5.05;;;;;;;;;;5009867;28;20376;-73
2023/05/14 12:05:57;;;;;;;6.75;3.90;;;;;;;;;;5026733;28;20072;-74
2023/05/14 12:08:42;;;;;;;7.07;4.97;;;;;;;;;;5017818;28;20049;-75
2023/05/14 12:11:31;;;;;;;6.97;4.20;;;;;;;;;;5027915;28;20024;-71
2023/05/14 12:14:21;;;;;;;8.18;4.75;;;;;;;;;;5007772;28;20530;-72
2023/05/14 12:17:06;;;;;;;;;;;;;;;;;;5022782;28;20021;-73
2023/05/14 12:19:51;;;;;;;6.32;4.20;;;;;;;;;;5009999;28;20442;-72
2023/05/14 12:22:37;;;;;;;8.18;4.75;;;;;;;;;;5021323;28;20049;-74
2023/05/14 12:25:24;;;;;;;9.80;4.78;;;;;;;;;;5029654;28;20048;-72
2023/05/14 12:28:13;;;;;;;7.43;5.00;;;;;;;;;;5035166;28;20032;-74
2023/05/14 12:30:59;;;;;;;7.80;4.78;;;;;;;;;;5017333;28;20461;-75
2023/05/14 12:33:44;;;;;;;5.88;3.60;;;;;;;;;;5011643;28;20516;-75
2023/05/14 12:36:31;;;;;;;6.95;4.05;;;;;;;;;;5030498;28;20044;-74
2023/05/14 12:39:16;;;;;;;7.30;4.40;;;;;;;;;;5013372;28;20025;-74
2023/05/14 12:42:01;;;;;;;6.18;4.07;;;;;;;;;;5011775;28;20073;-74
2023/05/14 12:44:47;;;;;;;6.30;4.53;;;;;;;;;;5013178;28;20473;-74
2023/05/14 12:47:32;;;;;;;5.95;4.53;;;;;;;;;;5028419;28;20087;-74
2023/05/14 12:50:17;;;;;;;6.07;4.38;;;;;;;;;;5016318;28;20021;-77
2023/05/14 12:53:03;;;;;;;6.13;4.30;;;;;;;;;;5028645;28;20029;-76
2023/05/14 12:55:48;;;;;;;6.30;4.05;;;;;;;;;;5030705;28;20276;-75
2023/05/14 12:58:33;;;;;;;6.68;3.50;;;;;;;;;;5014851;28;20033;-74
2023/05/14 13:01:19;;;;;;;5.90;4.00;;;;;;;;;;5030608;28;20067;-76
2023/05/14 13:04:04;;;;;;;5.88;4.22;;;;;;;;;;5020852;28;20032;-70
2023/05/14 13:06:49;;;;;;;5.53;3.80;;;;;;;;;;5029270;28;20480;-77
2023/05/14 13:09:35;;;;;;;6.65;3.50;;;;;;;;;;5010506;28;20033;-71
2023/05/14 13:12:20;;;;;;;6.47;3.38;;;;;;;;;;5015755;28;20033;-72
2023/05/14 13:15:05;;;;;;;4.38;3.20;;;;;;;;;;5040683;28;20041;-71
2023/05/14 13:17:51;;;;;;;5.03;3.70;;;;;;;;;;5008635;28;20034;-71
2023/05/14 13:20:36;;;;;;;4.50;2.80;;;;;;;;;;5009888;28;20405;-71
2023/05/14 13:23:21;;;;;;;6.38;3.75;;;;;;;;;;5027043;28;20535;-72
2023/05/14 13:26:06;;;;;;;5.57;3.65;;;;;;;;;;5030562;28;20025;-71
2023/05/14 13:28:51;;;;;;;6.07;3.38;;;;;;;;;;5016594;28;20049;-69
2023/05/14 13:31:37;;;;;;;5.32;3.08;;;;;;;;;;5009124;28;20451;-71
2023/05/14 13:34:22;;;;;;;5.22;3.45;;;;;;;;;;5015904;28;20033;-71
2023/05/14 13:37:07;;;;;;;4.65;3.40;;;;;;;;;;5013384;28;20107;-70
2023/05/14 13:39:52;;;;;;;4.85;3.42;;;;;;;;;;5008250;28;20079;-70
2023/05/14 13:42:41;;;;;;;5.85;3.75;;;;;;;;;;5008408;28;20115;-72
2023/05/14 13:45:26;;;;;;;5.68;3.65;;;;;;;;;;5028617;28;20040;-63
2023/05/14 13:48:11;;;;;;;4.55;3.60;;;;;;;;;;5031006;28;20087;-65
2023/05/14 13:50:56;;;;;;;7.57;3.95;;;;;;;;;;5028544;28;20026;-64
2023/05/14 13:53:43;;;;;;;8.63;4.22;;;;;;;;;;5030275;28;20120;-67
2023/05/14 13:56:28;;;;;;;5.00;3.80;;;;;;;;;;5027412;28;20040;-66
2023/05/14 13:59:14;;;;;;;5.13;3.38;;;;;;;;;;5029756;28;20112;-73
2023/05/14 14:01:59;;;;;;;4.78;3.20;;;;;;;;;;5029959;28;20045;-72
2023/05/14 14:04:44;;;;;;;5.45;3.55;;;;;;;;;;5026734;28;20038;-66
2023/05/14 14:07:29;;;;;;;6.93;3.97;;;;;;;;;;5026668;28;20025;-65
2023/05/14 14:10:14;;;;;;;4.43;3.58;;;;;;;;;;5042408;28;20041;-64
2023/05/14 14:13:00;;;;;;;5.47;4.05;;;;;;;;;;5029272;28;20481;-67
2023/05/14 14:15:45;;;;;;;5.93;3.55;;;;;;;;;;5029357;28;20085;-63
2023/05/14 14:18:30;;;;;;;6.15;3.40;;;;;;;;;;5026414;28;20060;-63
2023/05/14 14:21:16;;;;;;;7.03;4.18;;;;;;;;;;5014576;28;20432;-70
2023/05/14 14:24:02;;;;;;;5.10;3.47;;;;;;;;;;5025635;28;20060;-73
2023/05/14 14:26:47;;;;;;;5.90;3.67;;;;;;;;;;5043513;28;20028;-70
2023/05/14 14:29:33;;;;;;;3.97;3.03;;;;;;;;;;5042849;28;20503;-69
2023/05/14 14:32:19;;;;;;;7.03;3.58;;;;;;;;;;5043255;28;20063;-70
2023/05/14 14:35:04;;;;;;;4.13;2.97;;;;;;;;;;5025262;28;20037;-71
2023/05/14 14:37:52;;;;;;;3.92;2.85;;;;;;;;;;5027957;28;20013;-70
2023/05/14 14:40:37;;;;;;;4.85;2.88;;;;;;;;;;5025182;28;20030;-69
2023/05/14 14:43:23;;;;;;;4.90;2.90;;;;;;;;;;5005128;28;20050;-69
2023/05/14 14:46:08;;;;;;;3.92;2.97;;;;;;;;;;5028719;28;20469;-69
2023/05/14 14:48:54;;;;;;;4.35;3.25;;;;;;;;;;5027568;28;20025;-67
2023/05/14 14:51:39;;;;;;;5.22;3.63;;;;;;;;;;5029089;28;20025;-69
2023/05/14 14:54:24;;;;;;;5.35;3.53;;;;;;;;;;5015042;28;20498;-71
2023/05/14 14:57:10;;;;;;;4.90;3.47;;;;;;;;;;5028641;28;20044;-68
2023/05/14 14:59:55;;;;;;;4.13;3.25;;;;;;;;;;5026987;28;20052;-69
2023/05/14 15:02:41;;;;;;;5.90;3.10;;;;;;;;;;5027516;28;20057;-68
2023/05/14 15:05:27;;;;;;;7.75;2.92;;;;;;;;;;5028737;28;20040;-67
2023/05/14 15:08:12;;;;;;;5.75;3.40;;;;;;;;;;5022677;28;20433;-68
2023/05/14 15:10:58;;;;;;;6.53;3.10;;;;;;;;;;5028733;28;20380;-68
2023/05/14 15:13:43;;;;;;;4.88;3.20;;;;;;;;;;5013906;28;20025;-73
2023/05/14 15:16:28;;;;;;;4.53;3.30;;;;;;;;;;5026677;28;20621;-67
2023/05/14 15:19:15;;;;;;;7.00;2.92;;;;;;;;;;5020157;28;20069;-68
2023/05/14 15:22:00;;;;;;;4.45;3.00;;;;;;;;;;5042757;28;20060;-67
2023/05/14 15:24:45;;;;;;;4.43;3.28;;;;;;;;;;5026013;28;20033;-67
2023/05/14 15:27:30;;;;;;;4.38;3.25;;;;;;;;;;5025250;28;20029;-67
2023/05/14 15:30:16;;;;;;;4.60;3.17;;;;;;;;;;5042296;28;20083;-64
2023/05/14 15:33:01;;;;;;;4.72;3.33;;;;;;;;;;5038020;28;20028;-68
2023/05/14 15:35:46;;;;;;;4.28;3.15;;;;;;;;;;5041865;28;20500;-66
2023/05/14 15:38:31;;;;;;;4.40;3.13;;;;;;;;;;5028333;28;20061;-67
2023/05/14 15:41:17;;;;;;;5.28;3.25;;;;;;;;;;5042319;28;20037;-66
2023/05/14 15:44:02;;;;;;;4.70;3.17;;;;;;;;;;5038537;28;20408;-67
2023/05/14 15:46:47;;;;;;;3.78;2.63;;;;;;;;;;5028286;28;20039;-68
2023/05/14 15:49:32;;;;;;;4.97;3.53;;;;;;;;;;5024351;28;20025;-70
2023/05/14 15:52:18;;;;;;;5.93;3.63;;;;;;;;;;4997541;28;20101;-68
2023/05/14 15:55:04;;;;;;;5.13;3.30;;;;;;;;;;5027075;28;20116;-73
2023/05/14 15:57:49;;;;;;;5.85;3.72;;;;;;;;;;5026578;28;20120;-72
2023/05/14 16:00:35;;;;;;;9.90;3.42;;;;;;;;;;5029310;28;20044;-72
2023/05/14 16:03:20;;;;;;;4.88;3.45;;;;;;;;;;5031333;28;20041;-72
2023/05/14 16:06:05;;;;;;;4.90;3.15;;;;;;;;;;5023966;28;20029;-71
2023/05/14 16:08:51;;;;;;;5.93;3.40;;;;;;;;;;5031923;28;20053;-64
2023/05/14 16:11:36;;;;;;;4.25;3.25;;;;;;;;;;5032056;28;20052;-68
2023/05/14 16:14:24;;;;;;;6.13;4.00;;;;;;;;;;5029073;28;20029;-68
2023/05/14 16:17:10;;;;;;;5.60;3.63;;;;;;;;;;5030224;28;20022;-71
2023/05/14 16:19:55;;;;;;;4.63;3.25;;;;;;;;;;5020367;28;20060;-69
2023/05/14 16:22:40;;;;;;;3.75;2.70;;;;;;;;;;5012864;28;20439;-71
2023/05/14 16:25:25;;;;;;;5.18;3.47;;;;;;;;;;5016103;28;20018;-68
2023/05/14 16:28:10;;;;;;;5.85;3.60;;;;;;;;;;5018347;28;20032;-69